Pagina principale
METAR-TAF:

METAR-TAF

Aeroporti :

Passo di Resia, Italia

latitudine: 46-50N, longitudine: 010-30E, altezza: 1800 m

Osservazione

Il bollettino è stato emesso 1 ora e 33 minuti fa, alle 01:55 UTC
Vento 5 kt da nord/nord-est
Temperature 6°C
Umidità 61%
Pressione 1021 hPa
Visibilità 10 km o più
nessuna nube inferiore a 1500 m e nessun cumulonembo

METAR: LIVE 240155Z 03005KT CAVOK 06/M01 Q1021 RMK SCT SCT070 VIS MIN 9999

Ora: 04:28 (03:28 UTC)


TAF: mancante

Osservazioni e previsioni meteorologiche di più di 4000 aeroporti (messaggi METAR e TAF).

Le stazioni disponibili sono rappresentate dai dischi gialli e rossi sulla carta.

Puntare il mouse per vedere il nome della stazione.

Clicca sopra per visualizzare le osservazioni e previsioni meteorologiche.

Per cambiare la mappa : fare clic sui pulsanti verdi con una croce nera per ingrandire, il pulsante verde con un trattino per diminuire, o sulla freccia verde per le mappe adiacenti.


METAR-TAF: